sensor_id;sensor_type;location;lat;lon;timestamp;pressure;altitude;pressure_sealevel;temperature;humidity
76050;BME280;64967;50.234;19.224;2023-07-22T00:01:22;97867.41;;;16.79;100.00
76050;BME280;64967;50.234;19.224;2023-07-22T00:03:50;97887.16;;;16.91;100.00
76050;BME280;64967;50.234;19.224;2023-07-22T00:06:17;97903.56;;;16.91;100.00
76050;BME280;64967;50.234;19.224;2023-07-22T00:08:44;97886.53;;;16.84;100.00
76050;BME280;64967;50.234;19.224;2023-07-22T00:11:11;97837.66;;;16.56;100.00
76050;BME280;64967;50.234;19.224;2023-07-22T00:13:38;97861.84;;;16.69;100.00
76050;BME280;64967;50.234;19.224;2023-07-22T00:16:06;97892.03;;;16.89;100.00
76050;BME280;64967;50.234;19.224;2023-07-22T00:18:35;97886.53;;;16.84;100.00
76050;BME280;64967;50.234;19.224;2023-07-22T00:21:02;97887.16;;;16.91;100.00
76050;BME280;64967;50.234;19.224;2023-07-22T00:23:29;97866.03;;;16.82;100.00
76050;BME280;64967;50.234;19.224;2023-07-22T00:25:56;97883.66;;;16.96;100.00
76050;BME280;64967;50.234;19.224;2023-07-22T00:28:23;97866.88;;;16.82;100.00
76050;BME280;64967;50.234;19.224;2023-07-22T00:30:50;97853.41;;;16.76;100.00
76050;BME280;64967;50.234;19.224;2023-07-22T00:33:20;97865.03;;;16.88;100.00
76050;BME280;64967;50.234;19.224;2023-07-22T00:35:48;97868.53;;;16.83;100.00
76050;BME280;64967;50.234;19.224;2023-07-22T00:38:18;97883.84;;;16.89;100.00
76050;BME280;64967;50.234;19.224;2023-07-22T00:40:46;97866.25;;;16.75;100.00
76050;BME280;64967;50.234;19.224;2023-07-22T00:43:13;97854.13;;;16.66;100.00
76050;BME280;64967;50.234;19.224;2023-07-22T00:45:40;97870.13;;;16.79;100.00
76050;BME280;64967;50.234;19.224;2023-07-22T00:48:11;97863.56;;;16.80;100.00
76050;BME280;64967;50.234;19.224;2023-07-22T00:50:40;97846.78;;;16.67;100.00
76050;BME280;64967;50.234;19.224;2023-07-22T00:53:07;97835.03;;;16.66;100.00
76050;BME280;64967;50.234;19.224;2023-07-22T00:55:36;97864.63;;;16.74;100.00
76050;BME280;64967;50.234;19.224;2023-07-22T00:58:06;97866.75;;;16.72;100.00
76050;BME280;64967;50.234;19.224;2023-07-22T01:00:33;97828.34;;;16.52;100.00
76050;BME280;64967;50.234;19.224;2023-07-22T01:03:00;97838.22;;;16.58;100.00
76050;BME280;64967;50.234;19.224;2023-07-22T01:05:40;97854.19;;;16.71;100.00
76050;BME280;64967;50.234;19.224;2023-07-22T01:08:31;97836.91;;;16.61;100.00
76050;BME280;64967;50.234;19.224;2023-07-22T01:11:27;97830.34;;;16.62;100.00
76050;BME280;64967;50.234;19.224;2023-07-22T01:14:15;97817.41;;;16.52;100.00
76050;BME280;64967;50.234;19.224;2023-07-22T01:17:11;97868.53;;;16.83;100.00
76050;BME280;64967;50.234;19.224;2023-07-22T01:19:59;97859.81;;;16.86;100.00
76050;BME280;64967;50.234;19.224;2023-07-22T01:22:27;97860.94;;;16.90;100.00
76050;BME280;64967;50.234;19.224;2023-07-22T01:24:59;97858.50;;;16.94;100.00
76050;BME280;64967;50.234;19.224;2023-07-22T01:27:27;97822.06;;;16.78;100.00
76050;BME280;64967;50.234;19.224;2023-07-22T01:29:54;97802.28;;;16.66;100.00
76050;BME280;64967;50.234;19.224;2023-07-22T01:32:22;97866.00;;;17.09;100.00
76050;BME280;64967;50.234;19.224;2023-07-22T01:34:49;97838.09;;;17.02;100.00
76050;BME280;64967;50.234;19.224;2023-07-22T01:37:19;97819.75;;;16.97;100.00
76050;BME280;64967;50.234;19.224;2023-07-22T01:39:53;97851.56;;;17.13;100.00
76050;BME280;64967;50.234;19.224;2023-07-22T01:42:29;97850.22;;;17.16;100.00
76050;BME280;64967;50.234;19.224;2023-07-22T01:44:58;97789.34;;;16.83;100.00
76050;BME280;64967;50.234;19.224;2023-07-22T01:47:25;97804.66;;;16.89;100.00
76050;BME280;64967;50.234;19.224;2023-07-22T01:49:53;97855.66;;;17.16;100.00
76050;BME280;64967;50.234;19.224;2023-07-22T01:52:20;97840.31;;;17.05;100.00
76050;BME280;64967;50.234;19.224;2023-07-22T01:54:57;97851.03;;;17.16;100.00
76050;BME280;64967;50.234;19.224;2023-07-22T01:57:24;97841.97;;;17.06;100.00
76050;BME280;64967;50.234;19.224;2023-07-22T01:59:57;97857.59;;;17.15;100.00
76050;BME280;64967;50.234;19.224;2023-07-22T02:02:27;97868.50;;;17.10;100.00
76050;BME280;64967;50.234;19.224;2023-07-22T02:04:57;97833.03;;;16.83;100.00
76050;BME280;64967;50.234;19.224;2023-07-22T02:07:25;97862.09;;;17.00;100.00
76050;BME280;64967;50.234;19.224;2023-07-22T02:09:56;97864.34;;;17.08;100.00
76050;BME280;64967;50.234;19.224;2023-07-22T02:12:23;97853.13;;;17.04;100.00
76050;BME280;64967;50.234;19.224;2023-07-22T02:14:50;97840.44;;;16.88;100.00
76050;BME280;64967;50.234;19.224;2023-07-22T02:17:17;97778.06;;;16.48;100.00
76050;BME280;64967;50.234;19.224;2023-07-22T02:19:47;97825.00;;;16.72;100.00
76050;BME280;64967;50.234;19.224;2023-07-22T02:22:14;97858.16;;;16.85;100.00
76050;BME280;64967;50.234;19.224;2023-07-22T02:24:45;97863.06;;;16.83;100.00
76050;BME280;64967;50.234;19.224;2023-07-22T02:27:18;97842.19;;;16.72;100.00
76050;BME280;64967;50.234;19.224;2023-07-22T02:29:45;97876.78;;;16.88;100.00
76050;BME280;64967;50.234;19.224;2023-07-22T02:32:14;97879.50;;;16.88;100.00
76050;BME280;64967;50.234;19.224;2023-07-22T02:34:42;97862.19;;;16.78;100.00
76050;BME280;64967;50.234;19.224;2023-07-22T02:37:10;97882.19;;;16.83;100.00
76050;BME280;64967;50.234;19.224;2023-07-22T02:39:37;97880.53;;;16.82;100.00
76050;BME280;64967;50.234;19.224;2023-07-22T02:42:07;97886.53;;;16.84;100.00
76050;BME280;64967;50.234;19.224;2023-07-22T02:44:36;97880.41;;;16.72;100.00
76050;BME280;64967;50.234;19.224;2023-07-22T02:47:06;97892.22;;;16.78;100.00
76050;BME280;64967;50.234;19.224;2023-07-22T02:49:34;97897.97;;;16.81;100.00
76050;BME280;64967;50.234;19.224;2023-07-22T02:52:04;97846.81;;;16.45;100.00
76050;BME280;64967;50.234;19.224;2023-07-22T02:54:31;97903.97;;;16.78;100.00
76050;BME280;64967;50.234;19.224;2023-07-22T02:56:59;97889.84;;;16.60;100.00
76050;BME280;64967;50.234;19.224;2023-07-22T02:59:27;97896.50;;;16.69;100.00
76050;BME280;64967;50.234;19.224;2023-07-22T03:01:54;97901.72;;;16.70;100.00
76050;BME280;64967;50.234;19.224;2023-07-22T03:04:21;97877.66;;;16.45;100.00
76050;BME280;64967;50.234;19.224;2023-07-22T03:06:48;97891.34;;;16.50;100.00
76050;BME280;64967;50.234;19.224;2023-07-22T03:09:15;97896.22;;;16.48;100.00
76050;BME280;64967;50.234;19.224;2023-07-22T03:11:42;97920.75;;;16.65;100.00
76050;BME280;64967;50.234;19.224;2023-07-22T03:14:11;97915.97;;;16.56;100.00
76050;BME280;64967;50.234;19.224;2023-07-22T03:16:38;97856.63;;;16.19;100.00
76050;BME280;64967;50.234;19.224;2023-07-22T03:19:06;97817.88;;;15.95;100.00
76050;BME280;64967;50.234;19.224;2023-07-22T03:21:34;97922.44;;;16.49;100.00
76050;BME280;64967;50.234;19.224;2023-07-22T03:24:01;97943.59;;;16.59;100.00
76050;BME280;64967;50.234;19.224;2023-07-22T03:26:29;97929.44;;;16.40;100.00
76050;BME280;64967;50.234;19.224;2023-07-22T03:28:56;97934.78;;;16.52;100.00
76050;BME280;64967;50.234;19.224;2023-07-22T03:31:23;97915.41;;;16.32;100.00
76050;BME280;64967;50.234;19.224;2023-07-22T03:33:52;97916.50;;;16.31;100.00
76050;BME280;64967;50.234;19.224;2023-07-22T03:36:19;97936.84;;;16.45;100.00
76050;BME280;64967;50.234;19.224;2023-07-22T03:38:46;97932.94;;;16.36;100.00
76050;BME280;64967;50.234;19.224;2023-07-22T03:41:14;97907.38;;;16.20;100.00
76050;BME280;64967;50.234;19.224;2023-07-22T03:43:44;97921.38;;;16.29;100.00
76050;BME280;64967;50.234;19.224;2023-07-22T03:46:14;97945.03;;;16.45;100.00
76050;BME280;64967;50.234;19.224;2023-07-22T03:48:44;97935.09;;;16.34;100.00
76050;BME280;64967;50.234;19.224;2023-07-22T03:51:14;97976.84;;;16.56;100.00
76050;BME280;64967;50.234;19.224;2023-07-22T03:53:46;97960.28;;;16.41;100.00
76050;BME280;64967;50.234;19.224;2023-07-22T03:56:13;97978.38;;;16.47;100.00
76050;BME280;64967;50.234;19.224;2023-07-22T03:58:42;97986.09;;;16.55;100.00
76050;BME280;64967;50.234;19.224;2023-07-22T04:01:13;97984.44;;;16.54;100.00
76050;BME280;64967;50.234;19.224;2023-07-22T04:07:27;97991.66;;;16.60;100.00
76050;BME280;64967;50.234;19.224;2023-07-22T04:09:55;97986.34;;;16.53;100.00
76050;BME280;64967;50.234;19.224;2023-07-22T04:12:29;97997.94;;;16.61;100.00
76050;BME280;64967;50.234;19.224;2023-07-22T04:14:57;97997.28;;;16.53;100.00
76050;BME280;64967;50.234;19.224;2023-07-22T04:17:24;97983.84;;;16.47;100.00
76050;BME280;64967;50.234;19.224;2023-07-22T04:19:51;98007.22;;;16.60;100.00
76050;BME280;64967;50.234;19.224;2023-07-22T04:22:29;98002.47;;;16.55;100.00
76050;BME280;64967;50.234;19.224;2023-07-22T04:24:56;97977.78;;;16.45;100.00
76050;BME280;64967;50.234;19.224;2023-07-22T04:27:24;97994.81;;;16.52;100.00
76050;BME280;64967;50.234;19.224;2023-07-22T04:29:55;97988.19;;;16.48;100.00
76050;BME280;64967;50.234;19.224;2023-07-22T04:32:29;97994.22;;;16.50;100.00
76050;BME280;64967;50.234;19.224;2023-07-22T04:35:00;97992.63;;;16.54;100.00
76050;BME280;64967;50.234;19.224;2023-07-22T04:37:28;98009.94;;;16.60;100.00
76050;BME280;64967;50.234;19.224;2023-07-22T04:39:55;98004.97;;;16.57;100.00
76050;BME280;64967;50.234;19.224;2023-07-22T04:42:22;98007.94;;;16.55;100.00
76050;BME280;64967;50.234;19.224;2023-07-22T04:45:00;97990.28;;;16.41;100.00
76050;BME280;64967;50.234;19.224;2023-07-22T04:47:29;98031.25;;;16.63;100.00
76050;BME280;64967;50.234;19.224;2023-07-22T04:49:56;98047.66;;;16.63;100.00
76050;BME280;64967;50.234;19.224;2023-07-22T04:52:32;98034.25;;;16.61;100.00
76050;BME280;64967;50.234;19.224;2023-07-22T04:54:59;98020.69;;;16.49;100.00
76050;BME280;64967;50.234;19.224;2023-07-22T04:57:26;98044.50;;;16.54;100.00
76050;BME280;64967;50.234;19.224;2023-07-22T04:59:54;98012.94;;;16.41;100.00
76050;BME280;64967;50.234;19.224;2023-07-22T05:02:21;98051.72;;;16.60;100.00
76050;BME280;64967;50.234;19.224;2023-07-22T05:04:48;98022.88;;;16.47;100.00
76050;BME280;64967;50.234;19.224;2023-07-22T05:07:16;98037.31;;;16.48;100.00
76050;BME280;64967;50.234;19.224;2023-07-22T05:09:52;97990.03;;;16.21;100.00
76050;BME280;64967;50.234;19.224;2023-07-22T05:12:20;98025.63;;;16.52;100.00
76050;BME280;64967;50.234;19.224;2023-07-22T05:14:51;98041.69;;;16.66;100.00
76050;BME280;64967;50.234;19.224;2023-07-22T05:17:21;98058.56;;;16.63;100.00
76050;BME280;64967;50.234;19.224;2023-07-22T05:19:48;97972.75;;;15.93;100.00
76050;BME280;64967;50.234;19.224;2023-07-22T05:22:16;98064.53;;;16.60;100.00
76050;BME280;64967;50.234;19.224;2023-07-22T05:24:43;98021.00;;;16.31;100.00
76050;BME280;64967;50.234;19.224;2023-07-22T05:27:13;98068.16;;;16.65;100.00
76050;BME280;64967;50.234;19.224;2023-07-22T05:29:40;98061.13;;;16.69;100.00
76050;BME280;64967;50.234;19.224;2023-07-22T05:32:08;98066.13;;;16.77;100.00
76050;BME280;64967;50.234;19.224;2023-07-22T05:34:58;98071.53;;;16.72;100.00
76050;BME280;64967;50.234;19.224;2023-07-22T05:37:25;98047.81;;;16.56;100.00
76050;BME280;64967;50.234;19.224;2023-07-22T05:39:52;98072.09;;;16.74;100.00
76050;BME280;64967;50.234;19.224;2023-07-22T05:42:23;98060.59;;;16.72;100.00
76050;BME280;64967;50.234;19.224;2023-07-22T05:44:50;98063.56;;;16.71;100.00
76050;BME280;64967;50.234;19.224;2023-07-22T05:47:23;98089.19;;;16.86;100.00
76050;BME280;64967;50.234;19.224;2023-07-22T05:49:50;98089.88;;;16.77;100.00
76050;BME280;64967;50.234;19.224;2023-07-22T05:52:23;98086.47;;;16.86;100.00
76050;BME280;64967;50.234;19.224;2023-07-22T05:54:53;98068.47;;;16.69;100.00
76050;BME280;64967;50.234;19.224;2023-07-22T05:57:26;98099.94;;;16.93;100.00
76050;BME280;64967;50.234;19.224;2023-07-22T05:59:56;98053.63;;;16.60;100.00
76050;BME280;64967;50.234;19.224;2023-07-22T06:02:36;98099.91;;;16.71;100.00
76050;BME280;64967;50.234;19.224;2023-07-22T06:05:04;98113.25;;;16.89;100.00
76050;BME280;64967;50.234;19.224;2023-07-22T06:07:37;98106.53;;;17.19;100.00
76050;BME280;64967;50.234;19.224;2023-07-22T06:10:05;98098.97;;;17.53;100.00
76050;BME280;64967;50.234;19.224;2023-07-22T06:12:35;98106.31;;;18.01;99.09
76050;BME280;64967;50.234;19.224;2023-07-22T06:15:10;98113.00;;;18.20;94.94
76050;BME280;64967;50.234;19.224;2023-07-22T06:17:45;98031.34;;;17.43;94.46
76050;BME280;64967;50.234;19.224;2023-07-22T06:20:32;98114.88;;;17.82;95.64
76050;BME280;64967;50.234;19.224;2023-07-22T06:23:03;98102.00;;;18.10;95.03
76050;BME280;64967;50.234;19.224;2023-07-22T06:25:30;98093.56;;;17.84;96.98
76050;BME280;64967;50.234;19.224;2023-07-22T06:28:06;98105.31;;;18.17;94.43
76050;BME280;64967;50.234;19.224;2023-07-22T06:30:33;98044.69;;;18.35;96.17
76050;BME280;64967;50.234;19.224;2023-07-22T06:33:01;98101.06;;;19.30;88.96
76050;BME280;64967;50.234;19.224;2023-07-22T06:35:28;98087.41;;;19.45;83.38
76050;BME280;64967;50.234;19.224;2023-07-22T06:38:03;98022.56;;;18.94;81.50
76050;BME280;64967;50.234;19.224;2023-07-22T06:40:39;98071.06;;;18.98;85.66
76050;BME280;64967;50.234;19.224;2023-07-22T06:43:09;98120.94;;;19.63;82.93
76050;BME280;64967;50.234;19.224;2023-07-22T06:45:40;98121.66;;;19.43;82.64
76050;BME280;64967;50.234;19.224;2023-07-22T06:48:09;98118.06;;;19.37;85.65
76050;BME280;64967;50.234;19.224;2023-07-22T06:50:36;98113.66;;;19.26;84.07
76050;BME280;64967;50.234;19.224;2023-07-22T06:53:03;98119.97;;;19.32;85.65
76050;BME280;64967;50.234;19.224;2023-07-22T06:55:30;98115.78;;;19.14;82.48
76050;BME280;64967;50.234;19.224;2023-07-22T06:57:58;98110.75;;;18.96;83.51
76050;BME280;64967;50.234;19.224;2023-07-22T07:00:26;98118.53;;;19.09;83.94
76050;BME280;64967;50.234;19.224;2023-07-22T07:02:53;98116.59;;;19.09;82.03
76050;BME280;64967;50.234;19.224;2023-07-22T07:05:23;98122.66;;;18.59;85.89
76050;BME280;64967;50.234;19.224;2023-07-22T07:07:56;98131.53;;;18.45;84.66
76050;BME280;64967;50.234;19.224;2023-07-22T07:10:30;98126.84;;;18.77;84.37
76050;BME280;64967;50.234;19.224;2023-07-22T07:13:00;98128.84;;;18.92;84.22
76050;BME280;64967;50.234;19.224;2023-07-22T07:15:27;98133.97;;;19.30;82.82
76050;BME280;64967;50.234;19.224;2023-07-22T07:17:54;98141.72;;;19.48;81.88
76050;BME280;64967;50.234;19.224;2023-07-22T07:20:22;98066.81;;;18.70;80.45
76050;BME280;64967;50.234;19.224;2023-07-22T07:22:49;98129.69;;;18.97;81.88
76050;BME280;64967;50.234;19.224;2023-07-22T07:25:16;98118.31;;;18.68;81.24
76050;BME280;64967;50.234;19.224;2023-07-22T07:27:45;98115.53;;;18.63;81.51
76050;BME280;64967;50.234;19.224;2023-07-22T07:30:12;98112.09;;;18.88;80.45
76050;BME280;64967;50.234;19.224;2023-07-22T07:32:39;98141.34;;;19.30;80.70
76050;BME280;64967;50.234;19.224;2023-07-22T07:35:07;98081.25;;;19.08;81.75
76050;BME280;64967;50.234;19.224;2023-07-22T07:37:34;98123.06;;;19.50;79.41
76050;BME280;64967;50.234;19.224;2023-07-22T07:40:02;98141.25;;;19.87;76.99
76050;BME280;64967;50.234;19.224;2023-07-22T07:42:30;98139.34;;;19.92;79.65
76050;BME280;64967;50.234;19.224;2023-07-22T07:45:00;98113.84;;;20.12;77.75
76050;BME280;64967;50.234;19.224;2023-07-22T07:47:27;98147.91;;;20.31;72.47
76050;BME280;64967;50.234;19.224;2023-07-22T07:49:55;98156.16;;;20.36;74.67
76050;BME280;64967;50.234;19.224;2023-07-22T07:52:22;98142.41;;;20.16;73.84
76050;BME280;64967;50.234;19.224;2023-07-22T07:54:49;98156.66;;;20.13;75.33
76050;BME280;64967;50.234;19.224;2023-07-22T07:57:16;98163.28;;;20.32;72.70
76050;BME280;64967;50.234;19.224;2023-07-22T07:59:46;98161.06;;;20.19;73.16
76050;BME280;64967;50.234;19.224;2023-07-22T08:02:13;98119.88;;;19.89;71.45
76050;BME280;64967;50.234;19.224;2023-07-22T08:04:41;98158.03;;;20.05;71.31
76050;BME280;64967;50.234;19.224;2023-07-22T08:07:08;98158.00;;;19.95;75.18
76050;BME280;64967;50.234;19.224;2023-07-22T08:09:38;98086.94;;;19.79;73.17
76050;BME280;64967;50.234;19.224;2023-07-22T08:12:06;98180.34;;;20.39;71.06
76050;BME280;64967;50.234;19.224;2023-07-22T08:14:36;98167.13;;;20.41;68.48
76050;BME280;64967;50.234;19.224;2023-07-22T08:17:03;98183.06;;;20.49;70.91
76050;BME280;64967;50.234;19.224;2023-07-22T08:19:30;98184.69;;;20.76;66.76
76050;BME280;64967;50.234;19.224;2023-07-22T08:21:57;98197.91;;;20.74;65.49
76050;BME280;64967;50.234;19.224;2023-07-22T08:24:24;98161.59;;;20.72;67.42
76050;BME280;64967;50.234;19.224;2023-07-22T08:26:53;98211.31;;;21.06;65.40
76050;BME280;64967;50.234;19.224;2023-07-22T08:29:20;98187.19;;;20.47;67.15
76050;BME280;64967;50.234;19.224;2023-07-22T08:31:48;98199.00;;;20.37;68.39
76050;BME280;64967;50.234;19.224;2023-07-22T08:34:15;98215.41;;;20.02;69.33
76050;BME280;64967;50.234;19.224;2023-07-22T08:36:43;98204.97;;;20.14;66.70
76050;BME280;64967;50.234;19.224;2023-07-22T08:39:10;98224.53;;;20.58;68.67
76050;BME280;64967;50.234;19.224;2023-07-22T08:41:47;98213.84;;;20.67;68.00
76050;BME280;64967;50.234;19.224;2023-07-22T08:44:18;98233.06;;;20.77;67.35
76050;BME280;64967;50.234;19.224;2023-07-22T08:46:52;98227.00;;;20.95;64.65
76050;BME280;64967;50.234;19.224;2023-07-22T08:49:22;98230.88;;;20.89;62.96
76050;BME280;64967;50.234;19.224;2023-07-22T08:51:50;98220.41;;;20.81;65.82
76050;BME280;64967;50.234;19.224;2023-07-22T08:54:17;98213.00;;;20.76;66.63
76050;BME280;64967;50.234;19.224;2023-07-22T08:56:44;98232.50;;;20.85;63.39
76050;BME280;64967;50.234;19.224;2023-07-22T08:59:15;98227.25;;;21.09;63.38
76050;BME280;64967;50.234;19.224;2023-07-22T09:01:44;98211.59;;;21.19;62.93
76050;BME280;64967;50.234;19.224;2023-07-22T09:04:12;98224.72;;;21.43;61.36
76050;BME280;64967;50.234;19.224;2023-07-22T09:06:40;98222.00;;;21.12;62.10
76050;BME280;64967;50.234;19.224;2023-07-22T09:09:09;98223.16;;;20.76;62.67
76050;BME280;64967;50.234;19.224;2023-07-22T09:11:36;98224.81;;;20.57;66.65
76050;BME280;64967;50.234;19.224;2023-07-22T09:14:04;98220.66;;;20.89;65.40
76050;BME280;64967;50.234;19.224;2023-07-22T09:16:32;98220.34;;;21.31;64.54
76050;BME280;64967;50.234;19.224;2023-07-22T09:19:04;98234.41;;;21.10;63.59
76050;BME280;64967;50.234;19.224;2023-07-22T09:21:32;98241.88;;;20.48;66.44
76050;BME280;64967;50.234;19.224;2023-07-22T09:24:22;98251.47;;;20.56;66.08
76050;BME280;64967;50.234;19.224;2023-07-22T09:26:51;98235.72;;;20.26;67.04
76050;BME280;64967;50.234;19.224;2023-07-22T09:29:18;98248.44;;;20.47;66.64
76050;BME280;64967;50.234;19.224;2023-07-22T09:31:53;98247.91;;;20.66;64.67
76050;BME280;64967;50.234;19.224;2023-07-22T09:34:20;98222.06;;;20.77;63.19
76050;BME280;64967;50.234;19.224;2023-07-22T09:36:54;98241.28;;;21.17;65.99
76050;BME280;64967;50.234;19.224;2023-07-22T09:39:22;98239.59;;;21.31;64.11
76050;BME280;64967;50.234;19.224;2023-07-22T09:41:50;98190.16;;;20.91;62.86
76050;BME280;64967;50.234;19.224;2023-07-22T09:44:19;98218.16;;;21.08;62.17
76050;BME280;64967;50.234;19.224;2023-07-22T09:46:48;98239.56;;;21.47;61.00
76050;BME280;64967;50.234;19.224;2023-07-22T09:49:17;98219.78;;;21.34;61.76
76050;BME280;64967;50.234;19.224;2023-07-22T09:51:45;98257.16;;;21.51;61.12
76050;BME280;64967;50.234;19.224;2023-07-22T09:54:27;98230.28;;;21.17;62.14
76050;BME280;64967;50.234;19.224;2023-07-22T09:56:58;98232.72;;;21.34;65.01
76050;BME280;64967;50.234;19.224;2023-07-22T09:59:28;98236.25;;;21.50;63.79
76050;BME280;64967;50.234;19.224;2023-07-22T10:01:57;98235.56;;;21.88;64.53
76050;BME280;64967;50.234;19.224;2023-07-22T10:04:33;98222.63;;;21.84;59.10
76050;BME280;64967;50.234;19.224;2023-07-22T10:07:02;98234.81;;;21.67;59.08
76050;BME280;64967;50.234;19.224;2023-07-22T10:09:31;98246.59;;;21.78;57.09
76050;BME280;64967;50.234;19.224;2023-07-22T10:11:58;98237.69;;;22.06;57.08
76050;BME280;64967;50.234;19.224;2023-07-22T10:14:27;98227.34;;;22.27;57.67
76050;BME280;64967;50.234;19.224;2023-07-22T10:16:59;98247.88;;;22.50;55.86
76050;BME280;64967;50.234;19.224;2023-07-22T10:19:26;98247.72;;;22.31;54.83
76050;BME280;64967;50.234;19.224;2023-07-22T10:21:54;98237.47;;;22.42;54.79
76050;BME280;64967;50.234;19.224;2023-07-22T10:24:21;98235.59;;;22.66;55.69
76050;BME280;64967;50.234;19.224;2023-07-22T10:26:50;98248.28;;;22.67;57.12
76050;BME280;64967;50.234;19.224;2023-07-22T10:29:21;98216.13;;;22.52;55.17
76050;BME280;64967;50.234;19.224;2023-07-22T10:31:48;98245.63;;;22.52;53.90
76050;BME280;64967;50.234;19.224;2023-07-22T10:34:26;98244.25;;;22.54;54.61
76050;BME280;64967;50.234;19.224;2023-07-22T10:36:56;98246.59;;;22.37;54.79
76050;BME280;64967;50.234;19.224;2023-07-22T10:39:28;98247.97;;;22.35;55.40
76050;BME280;64967;50.234;19.224;2023-07-22T10:42:04;98215.28;;;22.23;54.90
76050;BME280;64967;50.234;19.224;2023-07-22T10:44:35;98219.88;;;22.33;58.57
76050;BME280;64967;50.234;19.224;2023-07-22T10:47:05;98246.78;;;22.46;56.41
76050;BME280;64967;50.234;19.224;2023-07-22T10:49:45;98235.56;;;22.37;56.76
76050;BME280;64967;50.234;19.224;2023-07-22T10:52:40;98252.44;;;22.64;57.51
76050;BME280;64967;50.234;19.224;2023-07-22T10:55:17;98244.94;;;22.75;56.34
76050;BME280;64967;50.234;19.224;2023-07-22T10:57:52;98238.78;;;22.83;56.12
76050;BME280;64967;50.234;19.224;2023-07-22T11:00:29;98250.38;;;22.85;54.04
76050;BME280;64967;50.234;19.224;2023-07-22T11:03:10;98252.97;;;22.66;52.40
76050;BME280;64967;50.234;19.224;2023-07-22T11:05:54;98263.56;;;22.88;53.04
76050;BME280;64967;50.234;19.224;2023-07-22T11:08:39;98261.75;;;23.07;49.65
76050;BME280;64967;50.234;19.224;2023-07-22T11:11:06;98255.94;;;23.09;53.99
76050;BME280;64967;50.234;19.224;2023-07-22T11:13:39;98241.66;;;23.31;53.85
76050;BME280;64967;50.234;19.224;2023-07-22T11:16:12;98226.31;;;23.20;54.05
76050;BME280;64967;50.234;19.224;2023-07-22T11:18:41;98252.50;;;23.51;49.99
76050;BME280;64967;50.234;19.224;2023-07-22T11:21:12;98259.19;;;23.16;48.59
76050;BME280;64967;50.234;19.224;2023-07-22T11:23:39;98243.41;;;22.93;48.99
76050;BME280;64967;50.234;19.224;2023-07-22T11:26:07;98247.78;;;22.60;50.33
76050;BME280;64967;50.234;19.224;2023-07-22T11:28:35;98260.13;;;22.67;51.07
76050;BME280;64967;50.234;19.224;2023-07-22T11:31:02;98230.28;;;22.41;53.47
76050;BME280;64967;50.234;19.224;2023-07-22T11:33:40;98240.22;;;22.42;54.89
76050;BME280;64967;50.234;19.224;2023-07-22T11:36:07;98251.09;;;22.96;55.33
76050;BME280;64967;50.234;19.224;2023-07-22T11:38:43;98233.22;;;22.88;52.76
76050;BME280;64967;50.234;19.224;2023-07-22T11:41:14;98238.97;;;22.58;52.85
76050;BME280;64967;50.234;19.224;2023-07-22T11:43:41;98247.53;;;22.95;50.75
76050;BME280;64967;50.234;19.224;2023-07-22T11:46:08;98241.09;;;23.29;49.81
76050;BME280;64967;50.234;19.224;2023-07-22T11:48:36;98242.63;;;23.45;49.21
76050;BME280;64967;50.234;19.224;2023-07-22T11:51:04;98230.50;;;23.41;48.89
76050;BME280;64967;50.234;19.224;2023-07-22T11:53:33;98248.63;;;23.23;49.31
76050;BME280;64967;50.234;19.224;2023-07-22T11:56:02;98249.63;;;22.75;48.42
76050;BME280;64967;50.234;19.224;2023-07-22T11:58:32;98225.13;;;22.73;49.83
76050;BME280;64967;50.234;19.224;2023-07-22T12:01:03;98246.59;;;22.76;49.03
76050;BME280;64967;50.234;19.224;2023-07-22T12:03:32;98245.84;;;22.60;51.19
76050;BME280;64967;50.234;19.224;2023-07-22T12:06:06;98235.63;;;22.61;51.58
76050;BME280;64967;50.234;19.224;2023-07-22T12:08:33;98247.72;;;22.70;51.36
76050;BME280;64967;50.234;19.224;2023-07-22T12:11:01;98237.38;;;22.08;50.43
76050;BME280;64967;50.234;19.224;2023-07-22T12:13:29;98227.16;;;22.18;50.55
76050;BME280;64967;50.234;19.224;2023-07-22T12:16:03;98241.59;;;21.95;53.28
76050;BME280;64967;50.234;19.224;2023-07-22T12:18:46;98239.31;;;22.07;52.58
76050;BME280;64967;50.234;19.224;2023-07-22T12:21:14;98233.06;;;22.41;53.03
76050;BME280;64967;50.234;19.224;2023-07-22T12:27:08;98213.31;;;22.29;50.38
76050;BME280;64967;50.234;19.224;2023-07-22T12:29:35;98219.06;;;22.32;52.27
76050;BME280;64967;50.234;19.224;2023-07-22T12:32:02;98233.56;;;22.04;51.15
76050;BME280;64967;50.234;19.224;2023-07-22T12:34:29;98191.09;;;22.15;52.04
76050;BME280;64967;50.234;19.224;2023-07-22T12:36:56;98237.31;;;22.57;52.22
76050;BME280;64967;50.234;19.224;2023-07-22T12:39:23;98208.78;;;22.43;52.46
76050;BME280;64967;50.234;19.224;2023-07-22T12:41:50;98211.53;;;22.43;49.93
76050;BME280;64967;50.234;19.224;2023-07-22T12:44:17;98219.47;;;22.49;50.01
76050;BME280;64967;50.234;19.224;2023-07-22T12:46:44;98231.84;;;22.52;49.55
76050;BME280;64967;50.234;19.224;2023-07-22T12:49:11;98229.25;;;22.32;50.56
76050;BME280;64967;50.234;19.224;2023-07-22T12:51:38;98236.53;;;22.12;51.23
76050;BME280;64967;50.234;19.224;2023-07-22T12:54:05;98218.44;;;22.01;51.27
76050;BME280;64967;50.234;19.224;2023-07-22T12:56:32;98234.34;;;22.14;52.02
76050;BME280;64967;50.234;19.224;2023-07-22T12:58:59;98210.16;;;22.06;50.65
76050;BME280;64967;50.234;19.224;2023-07-22T13:01:26;98232.09;;;22.16;51.48
76050;BME280;64967;50.234;19.224;2023-07-22T13:03:54;98213.97;;;22.10;51.71
76050;BME280;64967;50.234;19.224;2023-07-22T13:06:21;98215.03;;;22.19;51.40